Time;durP1;ratioP1;P1;durP2;ratioP2;P2;SDS_P1;SDS_P2;PMS_P1;PMS_P2;Temp;Humidity;BMP_temperature;BMP_pressure;BME280_temperature;BME280_humidity;BME280_pressure;Samples;Min_cycle;Max_cycle;Signal;HPM_P1;HPM_P2
2022/07/04 00:00:16;;;;;;;4.60;2.90;;;;;;;;;;4289960;33;20136;-78
2022/07/04 00:02:43;;;;;;;3.05;2.50;;;;;;;;;;4290459;33;20099;-79
2022/07/04 00:34:05;;;;;;;3.03;2.60;;;;;;;;;;4420672;28;20492;-73
2022/07/04 00:36:31;;;;;;;7.37;2.87;;;;;;;;;;4304158;33;20115;-72
2022/07/04 00:38:57;;;;;;;3.65;2.58;;;;;;;;;;4304035;33;20122;-72
2022/07/04 00:41:23;;;;;;;3.45;3.08;;;;;;;;;;4304060;33;20161;-73
2022/07/04 00:44:07;;;;;;;2.80;2.60;;;;;;;;;;4304098;33;20127;-74
2022/07/04 00:46:34;;;;;;;5.82;2.95;;;;;;;;;;4304101;33;20099;-81
2022/07/04 00:49:01;;;;;;;2.90;2.20;;;;;;;;;;4304042;33;20112;-81
2022/07/04 00:51:27;;;;;;;2.80;2.33;;;;;;;;;;4290661;33;20184;-81
2022/07/04 00:53:54;;;;;;;4.45;2.70;;;;;;;;;;4303775;33;20561;-74
2022/07/04 00:56:21;;;;;;;3.55;2.53;;;;;;;;;;4290335;33;20127;-74
2022/07/04 00:58:48;;;;;;;2.90;2.50;;;;;;;;;;4290275;33;20187;-72
2022/07/04 01:01:14;;;;;;;3.70;2.62;;;;;;;;;;4303232;33;20098;-74
2022/07/04 01:03:40;;;;;;;3.67;2.30;;;;;;;;;;4303705;33;20463;-73
2022/07/04 01:06:08;;;;;;;2.53;2.33;;;;;;;;;;4290292;33;20111;-73
2022/07/04 01:08:44;;;;;;;3.30;2.33;;;;;;;;;;4303627;33;20107;-79
2022/07/04 01:11:10;;;;;;;2.50;2.30;;;;;;;;;;4304247;33;20096;-79
2022/07/04 01:13:36;;;;;;;3.00;2.40;;;;;;;;;;4290428;33;20119;-79
2022/07/04 01:16:03;;;;;;;4.43;2.50;;;;;;;;;;4304066;33;20139;-81
2022/07/04 01:18:30;;;;;;;3.65;2.30;;;;;;;;;;4291077;33;20498;-81
2022/07/04 01:20:56;;;;;;;3.75;2.17;;;;;;;;;;4304085;33;20115;-81
2022/07/04 01:23:23;;;;;;;5.15;2.33;;;;;;;;;;4303806;33;20122;-81
2022/07/04 01:25:50;;;;;;;2.42;2.22;;;;;;;;;;4304419;33;20126;-79
2022/07/04 01:28:18;;;;;;;3.47;2.25;;;;;;;;;;4303682;33;20511;-82
2022/07/04 01:30:44;;;;;;;3.05;2.78;;;;;;;;;;4290411;33;20111;-82
2022/07/04 01:33:10;;;;;;;3.22;2.37;;;;;;;;;;4303623;33;20587;-83
2022/07/04 01:35:36;;;;;;;3.47;2.30;;;;;;;;;;4303902;33;20096;-83
2022/07/04 01:38:03;;;;;;;2.30;1.95;;;;;;;;;;4303773;33;20119;-83
2022/07/04 01:40:29;;;;;;;2.45;2.10;;;;;;;;;;4304147;33;20095;-84
2022/07/04 01:42:55;;;;;;;4.07;2.12;;;;;;;;;;4292496;33;20115;-84
2022/07/04 01:45:21;;;;;;;2.58;2.25;;;;;;;;;;4292694;33;20122;-83
2022/07/04 01:47:47;;;;;;;2.58;2.00;;;;;;;;;;4305891;33;20206;-82
2022/07/04 01:50:13;;;;;;;3.62;2.00;;;;;;;;;;4305952;33;20127;-82
2022/07/04 01:52:40;;;;;;;3.97;1.87;;;;;;;;;;4305911;33;20095;-83
2022/07/04 01:55:08;;;;;;;2.90;2.20;;;;;;;;;;4292534;33;20127;-83
2022/07/04 01:57:34;;;;;;;2.45;2.25;;;;;;;;;;4292825;33;20126;-83
2022/07/04 02:02:44;;;;;;;2.47;2.10;;;;;;;;;;4305735;33;20213;-82
2022/07/04 02:05:10;;;;;;;2.30;2.10;;;;;;;;;;4305903;33;20460;-79
2022/07/04 02:07:36;;;;;;;7.95;2.17;;;;;;;;;;4305943;33;20102;-80
2022/07/04 02:10:03;;;;;;;4.00;1.87;;;;;;;;;;4305773;33;20135;-79
2022/07/04 02:15:14;;;;;;;2.07;1.87;;;;;;;;;;4294401;33;20112;-79
2022/07/04 02:17:40;;;;;;;2.53;2.33;;;;;;;;;;4292295;33;20284;-80
2022/07/04 02:20:06;;;;;;;2.78;2.20;;;;;;;;;;4292197;33;20122;-79
2022/07/04 02:22:32;;;;;;;2.80;2.10;;;;;;;;;;4305769;33;20158;-82
2022/07/04 02:24:58;;;;;;;2.30;2.10;;;;;;;;;;4305761;33;20550;-82
2022/07/04 02:27:24;;;;;;;6.62;2.40;;;;;;;;;;4305757;33;20124;-82
2022/07/04 02:29:50;;;;;;;4.28;2.40;;;;;;;;;;4305931;33;20235;-82
2022/07/04 02:32:16;;;;;;;3.78;1.90;;;;;;;;;;4292038;33;20108;-82
2022/07/04 02:34:42;;;;;;;3.37;2.30;;;;;;;;;;4305805;33;20121;-83
2022/07/04 02:37:09;;;;;;;2.50;2.20;;;;;;;;;;4305776;33;20119;-83
2022/07/04 02:39:36;;;;;;;2.40;2.20;;;;;;;;;;4305494;33;20522;-80
2022/07/04 02:42:02;;;;;;;2.25;2.05;;;;;;;;;;4305531;33;20123;-79
2022/07/04 02:44:28;;;;;;;4.03;2.17;;;;;;;;;;4305555;33;20537;-79
2022/07/04 02:46:54;;;;;;;6.12;2.35;;;;;;;;;;4305516;33;20123;-81
2022/07/04 02:49:20;;;;;;;3.00;2.08;;;;;;;;;;4280078;33;20120;-79
2022/07/04 02:51:46;;;;;;;2.40;2.20;;;;;;;;;;4305084;33;20202;-80
2022/07/04 02:54:12;;;;;;;3.15;2.50;;;;;;;;;;4305402;33;20118;-81
2022/07/04 02:56:39;;;;;;;2.67;2.28;;;;;;;;;;4305380;33;20452;-78
2022/07/04 02:59:05;;;;;;;2.75;2.30;;;;;;;;;;4305489;33;20127;-80
2022/07/04 03:01:31;;;;;;;3.97;2.30;;;;;;;;;;4291885;33;20118;-79
2022/07/04 03:03:57;;;;;;;3.62;2.25;;;;;;;;;;4291952;33;20110;-79
2022/07/04 03:06:23;;;;;;;2.97;2.40;;;;;;;;;;4305159;33;20197;-78
2022/07/04 03:08:49;;;;;;;2.92;2.30;;;;;;;;;;4305497;33;20138;-79
2022/07/04 03:11:15;;;;;;;8.02;3.10;;;;;;;;;;4305334;33;20142;-78
2022/07/04 03:13:42;;;;;;;2.83;2.30;;;;;;;;;;4305710;33;20214;-79
2022/07/04 03:16:08;;;;;;;5.68;2.70;;;;;;;;;;4305160;33;20147;-77
2022/07/04 03:18:34;;;;;;;3.30;2.30;;;;;;;;;;4291738;33;20523;-80
2022/07/04 03:21:01;;;;;;;3.33;2.30;;;;;;;;;;4305159;33;20234;-80
2022/07/04 03:23:27;;;;;;;4.05;2.62;;;;;;;;;;4304939;33;20179;-80
2022/07/04 03:25:53;;;;;;;3.25;2.83;;;;;;;;;;4304957;33;20137;-80
2022/07/04 03:28:19;;;;;;;6.25;2.70;;;;;;;;;;4305235;33;20264;-80
2022/07/04 03:30:45;;;;;;;3.40;2.50;;;;;;;;;;4299809;33;20119;-79
2022/07/04 03:33:11;;;;;;;4.05;2.65;;;;;;;;;;4290018;33;20197;-73
2022/07/04 03:35:37;;;;;;;3.75;2.85;;;;;;;;;;4276132;33;20214;-70
2022/07/04 03:38:03;;;;;;;3.80;2.50;;;;;;;;;;4289989;33;20127;-67
2022/07/04 03:40:30;;;;;;;4.05;2.45;;;;;;;;;;4288799;33;20128;-70
2022/07/04 03:42:58;;;;;;;2.87;2.50;;;;;;;;;;4286274;33;20167;-70
2022/07/04 03:45:24;;;;;;;3.70;2.95;;;;;;;;;;4281347;33;20131;-71
2022/07/04 03:47:51;;;;;;;5.80;2.80;;;;;;;;;;4281397;33;20088;-73
2022/07/04 03:50:17;;;;;;;2.90;2.65;;;;;;;;;;4269096;33;20120;-71
2022/07/04 03:52:43;;;;;;;5.82;2.78;;;;;;;;;;4282341;33;20096;-73
2022/07/04 03:55:09;;;;;;;3.55;3.08;;;;;;;;;;4289824;33;20123;-71
2022/07/04 03:57:36;;;;;;;4.30;3.08;;;;;;;;;;4275887;33;20120;-73
2022/07/04 04:00:03;;;;;;;4.80;2.85;;;;;;;;;;4274775;33;20104;-73
2022/07/04 04:02:29;;;;;;;4.78;3.37;;;;;;;;;;4289559;33;20099;-74
2022/07/04 04:07:40;;;;;;;6.43;3.45;;;;;;;;;;4289904;33;20507;-74
2022/07/04 04:10:06;;;;;;;7.93;3.00;;;;;;;;;;4289882;33;20139;-74
2022/07/04 04:12:32;;;;;;;6.40;3.33;;;;;;;;;;4289914;33;20102;-73
2022/07/04 04:14:58;;;;;;;7.97;4.20;;;;;;;;;;4289858;33;20237;-73
2022/07/04 04:17:25;;;;;;;7.75;3.00;;;;;;;;;;4276399;33;20122;-73
2022/07/04 04:19:51;;;;;;;3.80;3.17;;;;;;;;;;4289879;33;20542;-74
2022/07/04 04:22:17;;;;;;;3.15;2.78;;;;;;;;;;4289733;33;20108;-73
2022/07/04 04:24:43;;;;;;;6.28;3.58;;;;;;;;;;4290268;33;20582;-74
2022/07/04 04:27:09;;;;;;;4.03;3.20;;;;;;;;;;4289947;33;20112;-74
2022/07/04 04:29:35;;;;;;;3.53;2.80;;;;;;;;;;4289875;33;20142;-74
2022/07/04 04:32:01;;;;;;;4.82;3.47;;;;;;;;;;4289558;33;20135;-74
2022/07/04 04:34:26;;;;;;;5.68;3.33;;;;;;;;;;4289853;33;20123;-74
2022/07/04 04:36:52;;;;;;;6.25;4.22;;;;;;;;;;4289627;33;20482;-74
2022/07/04 04:39:18;;;;;;;4.30;3.40;;;;;;;;;;4289701;33;20131;-74
2022/07/04 04:41:44;;;;;;;5.72;3.45;;;;;;;;;;4289593;33;20138;-74
2022/07/04 04:44:10;;;;;;;4.78;2.90;;;;;;;;;;4285933;33;20503;-73
2022/07/04 04:46:37;;;;;;;4.47;3.50;;;;;;;;;;4282072;33;20531;-74
2022/07/04 04:49:03;;;;;;;7.07;3.42;;;;;;;;;;4277221;33;20428;-73
2022/07/04 04:51:29;;;;;;;5.80;3.60;;;;;;;;;;4275439;33;20112;-74
2022/07/04 04:53:54;;;;;;;4.45;3.10;;;;;;;;;;4275465;33;20203;-75
2022/07/04 04:56:21;;;;;;;8.32;3.55;;;;;;;;;;4262184;33;20212;-69
2022/07/04 04:58:47;;;;;;;4.90;3.60;;;;;;;;;;4275036;33;20115;-74
2022/07/04 05:01:13;;;;;;;4.45;3.70;;;;;;;;;;4275104;33;20463;-74
2022/07/04 05:03:39;;;;;;;4.90;3.47;;;;;;;;;;4268605;33;20143;-72
2022/07/04 05:06:05;;;;;;;5.28;3.83;;;;;;;;;;4289364;33;20570;-79
2022/07/04 05:08:31;;;;;;;4.25;3.37;;;;;;;;;;4275784;33;20119;-77
2022/07/04 05:10:57;;;;;;;4.97;3.58;;;;;;;;;;4287388;33;20131;-72
2022/07/04 05:13:23;;;;;;;4.30;3.58;;;;;;;;;;4261840;33;20467;-75
2022/07/04 05:15:49;;;;;;;4.57;3.70;;;;;;;;;;4281850;33;20111;-72
2022/07/04 05:18:18;;;;;;;3.25;2.95;;;;;;;;;;4278779;33;20100;-74
2022/07/04 05:20:44;;;;;;;6.28;3.37;;;;;;;;;;4274838;33;20115;-73
2022/07/04 05:23:11;;;;;;;7.75;4.45;;;;;;;;;;4274979;33;20120;-72
2022/07/04 05:25:37;;;;;;;4.07;3.35;;;;;;;;;;4275498;33;20104;-76
2022/07/04 05:28:03;;;;;;;10.40;4.70;;;;;;;;;;4282839;33;20131;-75
2022/07/04 05:30:29;;;;;;;6.25;3.80;;;;;;;;;;4290259;33;20122;-77
2022/07/04 05:32:58;;;;;;;4.28;3.50;;;;;;;;;;4289188;33;20127;-75
2022/07/04 05:35:24;;;;;;;5.00;3.75;;;;;;;;;;4289272;33;20206;-74
2022/07/04 05:37:50;;;;;;;5.37;4.20;;;;;;;;;;4289164;33;20594;-74
2022/07/04 05:40:16;;;;;;;6.25;4.20;;;;;;;;;;4288910;33;20206;-73
2022/07/04 05:42:42;;;;;;;5.95;4.03;;;;;;;;;;4286743;33;20095;-73
2022/07/04 05:45:09;;;;;;;5.12;3.50;;;;;;;;;;4289050;33;20149;-74
2022/07/04 05:47:35;;;;;;;6.85;3.80;;;;;;;;;;4284388;33;20111;-74
2022/07/04 05:50:01;;;;;;;6.78;3.50;;;;;;;;;;4281033;33;20554;-74
2022/07/04 05:52:27;;;;;;;5.90;3.70;;;;;;;;;;4280735;33;20108;-76
2022/07/04 05:54:53;;;;;;;4.75;3.62;;;;;;;;;;4282644;33;20534;-78
2022/07/04 05:57:19;;;;;;;7.25;3.30;;;;;;;;;;4275500;33;20199;-73
2022/07/04 05:59:45;;;;;;;6.03;3.50;;;;;;;;;;4288919;33;20546;-71
2022/07/04 06:02:11;;;;;;;7.72;4.10;;;;;;;;;;4288622;33;20152;-71
2022/07/04 06:04:37;;;;;;;5.30;4.00;;;;;;;;;;4288717;33;20535;-67
2022/07/04 06:07:03;;;;;;;5.07;3.50;;;;;;;;;;4288449;33;20537;-67
2022/07/04 06:09:29;;;;;;;4.78;3.22;;;;;;;;;;4288684;33;20154;-68
2022/07/04 06:11:55;;;;;;;4.82;3.53;;;;;;;;;;4288772;33;20115;-70
2022/07/04 06:14:21;;;;;;;8.43;4.03;;;;;;;;;;4288673;33;20211;-69
2022/07/04 06:16:47;;;;;;;4.62;3.12;;;;;;;;;;4288615;33;20120;-68
2022/07/04 06:19:13;;;;;;;3.85;3.20;;;;;;;;;;4275342;33;20134;-68
2022/07/04 06:21:39;;;;;;;5.32;3.33;;;;;;;;;;4288446;33;20211;-71
2022/07/04 06:24:05;;;;;;;3.58;3.28;;;;;;;;;;4288334;33;20124;-71
2022/07/04 06:26:31;;;;;;;7.22;3.80;;;;;;;;;;4289089;33;20206;-71
2022/07/04 06:28:57;;;;;;;5.57;3.10;;;;;;;;;;4290981;33;20107;-71
2022/07/04 06:31:23;;;;;;;4.45;3.55;;;;;;;;;;4290724;33;20470;-71
2022/07/04 06:36:34;;;;;;;7.22;3.58;;;;;;;;;;4290656;33;20167;-69
2022/07/04 06:39:00;;;;;;;11.45;3.90;;;;;;;;;;4277321;33;20099;-70
2022/07/04 06:41:26;;;;;;;6.82;3.47;;;;;;;;;;4290588;33;20203;-70
2022/07/04 06:43:52;;;;;;;9.02;3.62;;;;;;;;;;4290881;33;20087;-70
2022/07/04 06:46:18;;;;;;;7.90;3.87;;;;;;;;;;4290620;33;20221;-70
2022/07/04 06:48:44;;;;;;;5.93;3.78;;;;;;;;;;4290778;33;20100;-71
2022/07/04 06:51:11;;;;;;;5.20;2.05;;;;;;;;;;4290562;33;20138;-72
2022/07/04 06:53:37;;;;;;;2.72;2.08;;;;;;;;;;4290612;33;20126;-71
2022/07/04 06:56:03;;;;;;;3.37;2.20;;;;;;;;;;4290484;33;20130;-71
2022/07/04 06:58:29;;;;;;;1.48;1.37;;;;;;;;;;4290595;33;20119;-71
2022/07/04 07:00:55;;;;;;;2.97;1.70;;;;;;;;;;4290352;33;20111;-71
2022/07/04 07:03:21;;;;;;;5.18;2.87;;;;;;;;;;4290299;33;20124;-69
2022/07/04 07:05:47;;;;;;;2.60;2.00;;;;;;;;;;4290342;33;20650;-66
2022/07/04 07:08:13;;;;;;;2.35;2.05;;;;;;;;;;4290259;33;20457;-68
2022/07/04 07:10:39;;;;;;;1.52;1.40;;;;;;;;;;4290334;33;20215;-68
2022/07/04 07:13:05;;;;;;;1.37;1.27;;;;;;;;;;4301036;33;20111;-68
2022/07/04 07:15:35;;;;;;;2.45;2.03;;;;;;;;;;4300933;33;20135;-67
2022/07/04 07:18:04;;;;;;;3.95;2.22;;;;;;;;;;4290190;33;20204;-69
2022/07/04 07:20:31;;;;;;;4.93;2.47;;;;;;;;;;4277118;33;20190;-67
2022/07/04 07:22:57;;;;;;;2.90;2.60;;;;;;;;;;4290122;33;20124;-68
2022/07/04 07:25:23;;;;;;;2.08;1.90;;;;;;;;;;4290260;33;20529;-69
2022/07/04 07:27:49;;;;;;;4.22;2.40;;;;;;;;;;4290378;33;20100;-67
2022/07/04 07:30:15;;;;;;;1.67;1.58;;;;;;;;;;4290118;33;20115;-64
2022/07/04 07:32:41;;;;;;;1.92;1.73;;;;;;;;;;4289973;33;20108;-68
2022/07/04 07:35:07;;;;;;;10.07;2.20;;;;;;;;;;4290144;33;20511;-68
2022/07/04 07:37:34;;;;;;;2.90;1.92;;;;;;;;;;4289603;33;20566;-67
2022/07/04 07:40:01;;;;;;;2.78;1.58;;;;;;;;;;4289682;33;20138;-67
2022/07/04 07:42:28;;;;;;;2.87;2.47;;;;;;;;;;4290116;33;20120;-67
2022/07/04 07:44:54;;;;;;;1.40;1.30;;;;;;;;;;4289944;33;20156;-68
2022/07/04 07:47:20;;;;;;;9.18;2.10;;;;;;;;;;4289935;33;20141;-67
2022/07/04 07:49:47;;;;;;;1.67;1.58;;;;;;;;;;4289963;33;20218;-68
2022/07/04 07:52:15;;;;;;;5.43;3.45;;;;;;;;;;4289812;33;20114;-68
2022/07/04 07:54:41;;;;;;;7.22;3.20;;;;;;;;;;4289976;33;20531;-66
2022/07/04 07:57:07;;;;;;;6.40;3.40;;;;;;;;;;4289741;33;20108;-67
2022/07/04 07:59:33;;;;;;;4.78;3.50;;;;;;;;;;4289860;33;20138;-68
2022/07/04 08:01:59;;;;;;;3.95;3.08;;;;;;;;;;4289796;33;20467;-68
2022/07/04 08:04:35;;;;;;;3.65;3.30;;;;;;;;;;4276602;33;20510;-68
2022/07/04 08:07:09;;;;;;;5.35;3.87;;;;;;;;;;4289749;33;20115;-68
2022/07/04 08:09:35;;;;;;;4.32;3.40;;;;;;;;;;4290181;33;20226;-68
2022/07/04 08:12:03;;;;;;;5.03;3.70;;;;;;;;;;4289725;33;20206;-67
2022/07/04 08:14:29;;;;;;;4.57;3.45;;;;;;;;;;4289807;33;20226;-67
2022/07/04 08:16:56;;;;;;;4.25;3.83;;;;;;;;;;4289749;33;20509;-67
2022/07/04 08:19:24;;;;;;;3.97;3.60;;;;;;;;;;4276437;33;20515;-67
2022/07/04 08:21:51;;;;;;;6.57;3.70;;;;;;;;;;4289672;33;20118;-66
2022/07/04 08:24:17;;;;;;;5.90;3.33;;;;;;;;;;4289772;33;20120;-65
2022/07/04 08:26:45;;;;;;;6.78;4.25;;;;;;;;;;4290120;33;20115;-67
2022/07/04 08:29:11;;;;;;;6.22;3.95;;;;;;;;;;4289541;33;20112;-68
2022/07/04 08:31:37;;;;;;;6.57;3.80;;;;;;;;;;4289636;33;20153;-68
2022/07/04 08:34:03;;;;;;;6.00;4.00;;;;;;;;;;4289386;33;20127;-66
2022/07/04 08:36:29;;;;;;;7.25;3.95;;;;;;;;;;4289637;33;20131;-68
2022/07/04 08:38:55;;;;;;;3.87;3.47;;;;;;;;;;4276284;33;20168;-68
2022/07/04 08:41:21;;;;;;;4.93;3.90;;;;;;;;;;4289703;33;20131;-68
2022/07/04 08:43:48;;;;;;;4.68;4.15;;;;;;;;;;4289356;33;20104;-67
2022/07/04 08:46:16;;;;;;;4.43;3.92;;;;;;;;;;4289512;33;20566;-66
2022/07/04 08:48:43;;;;;;;5.50;3.85;;;;;;;;;;4289564;33;20204;-68
2022/07/04 08:51:16;;;;;;;4.40;4.00;;;;;;;;;;4275788;33;20123;-70
2022/07/04 08:53:55;;;;;;;3.90;3.12;;;;;;;;;;4276322;33;20118;-66
2022/07/04 08:59:06;;;;;;;4.97;3.80;;;;;;;;;;4289409;33;20108;-68
2022/07/04 09:01:33;;;;;;;4.87;4.00;;;;;;;;;;4299984;33;20080;-68
2022/07/04 09:04:00;;;;;;;4.07;3.67;;;;;;;;;;4289191;33;20459;-68
2022/07/04 09:06:27;;;;;;;5.40;4.45;;;;;;;;;;4289405;33;20135;-69
2022/07/04 09:08:53;;;;;;;4.30;3.90;;;;;;;;;;4299888;33;20179;-70
2022/07/04 09:11:19;;;;;;;5.15;4.22;;;;;;;;;;4289298;33;20220;-70
2022/07/04 09:13:46;;;;;;;4.65;4.18;;;;;;;;;;4289591;33;20122;-69
2022/07/04 09:16:12;;;;;;;5.57;4.78;;;;;;;;;;4289526;33;20542;-69
2022/07/04 09:18:38;;;;;;;4.70;4.22;;;;;;;;;;4289553;33;20122;-69
2022/07/04 09:21:06;;;;;;;4.72;4.20;;;;;;;;;;4289137;33;20132;-69
2022/07/04 09:23:35;;;;;;;4.47;4.10;;;;;;;;;;4289292;33;20099;-67
2022/07/04 09:26:21;;;;;;;5.57;4.68;;;;;;;;;;4289129;33;20222;-69
2022/07/04 09:28:59;;;;;;;3.58;2.83;;;;;;;;;;4289098;33;20538;-68
2022/07/04 09:31:27;;;;;;;5.93;5.12;;;;;;;;;;4276137;33;20111;-68
2022/07/04 09:33:59;;;;;;;5.25;4.07;;;;;;;;;;4288877;33;20081;-70
2022/07/04 09:36:44;;;;;;;4.70;4.12;;;;;;;;;;4275636;33;20104;-68
2022/07/04 09:39:18;;;;;;;8.32;4.28;;;;;;;;;;4288884;33;20481;-70
2022/07/04 09:42:00;;;;;;;5.85;4.45;;;;;;;;;;4288858;33;20127;-71
2022/07/04 09:44:43;;;;;;;7.62;4.62;;;;;;;;;;4288915;33;20114;-71
2022/07/04 09:47:27;;;;;;;7.25;4.45;;;;;;;;;;4275371;33;20127;-71
2022/07/04 09:50:07;;;;;;;5.28;4.70;;;;;;;;;;4275761;33;20610;-70
2022/07/04 09:53:01;;;;;;;8.10;4.37;;;;;;;;;;4288687;33;20127;-70
2022/07/04 09:55:34;;;;;;;5.12;4.62;;;;;;;;;;4288885;33;20104;-70
2022/07/04 09:58:13;;;;;;;5.03;4.40;;;;;;;;;;4288829;33;20214;-67
2022/07/04 10:00:47;;;;;;;4.70;4.30;;;;;;;;;;4275370;33;20546;-69
2022/07/04 10:03:29;;;;;;;5.57;5.00;;;;;;;;;;4277552;33;20116;-69
2022/07/04 10:06:04;;;;;;;5.20;4.70;;;;;;;;;;4291205;33;20099;-70
2022/07/04 10:08:30;;;;;;;4.97;4.47;;;;;;;;;;4291092;33;20131;-70
2022/07/04 10:11:03;;;;;;;5.00;4.28;;;;;;;;;;4290889;33;20115;-69
2022/07/04 10:13:30;;;;;;;5.25;4.20;;;;;;;;;;4291012;33;20143;-70
2022/07/04 10:15:56;;;;;;;5.07;4.37;;;;;;;;;;4290947;33;20206;-70
2022/07/04 10:18:23;;;;;;;4.45;3.40;;;;;;;;;;4290703;33;20520;-70
2022/07/04 10:20:51;;;;;;;8.88;2.67;;;;;;;;;;4277706;33;20440;-70
2022/07/04 10:23:18;;;;;;;3.20;2.05;;;;;;;;;;4290806;33;20128;-70
2022/07/04 10:25:48;;;;;;;3.42;2.50;;;;;;;;;;4290905;33;20095;-70
2022/07/04 10:28:15;;;;;;;2.22;1.92;;;;;;;;;;4290616;33;20106;-69
2022/07/04 10:30:41;;;;;;;2.03;1.70;;;;;;;;;;4290745;33;20211;-70
2022/07/04 10:33:09;;;;;;;4.32;2.42;;;;;;;;;;4301074;33;20096;-70
2022/07/04 10:36:04;;;;;;;2.62;2.05;;;;;;;;;;4290758;33;20103;-69
2022/07/04 10:38:35;;;;;;;2.00;1.65;;;;;;;;;;4289568;33;20127;-68
2022/07/04 10:41:08;;;;;;;2.25;1.98;;;;;;;;;;4288160;33;20111;-72
2022/07/04 10:46:05;;;;;;;5.93;3.90;;;;;;;;;;4290623;33;20123;-68
2022/07/04 10:48:32;;;;;;;6.37;4.15;;;;;;;;;;4290708;33;20111;-69
2022/07/04 10:51:02;;;;;;;7.72;4.40;;;;;;;;;;4277326;33;20218;-71
2022/07/04 10:53:30;;;;;;;7.62;4.30;;;;;;;;;;4290432;33;20579;-68
2022/07/04 10:56:36;;;;;;;8.10;4.22;;;;;;;;;;4301430;33;20092;-68
2022/07/04 10:59:08;;;;;;;5.05;3.90;;;;;;;;;;4290042;33;20115;-69
2022/07/04 11:01:34;;;;;;;5.37;4.00;;;;;;;;;;4290655;33;20095;-70
2022/07/04 11:04:00;;;;;;;5.87;4.25;;;;;;;;;;4291220;33;20116;-68
2022/07/04 11:06:32;;;;;;;8.55;4.45;;;;;;;;;;4278758;33;20127;-69
2022/07/04 11:09:16;;;;;;;4.93;3.90;;;;;;;;;;4291244;33;20094;-68
2022/07/04 11:12:01;;;;;;;8.43;4.25;;;;;;;;;;4290733;33;20213;-69
2022/07/04 11:14:34;;;;;;;5.20;3.93;;;;;;;;;;4290601;33;20178;-70
2022/07/04 11:17:02;;;;;;;7.25;3.72;;;;;;;;;;4290570;33;20118;-68
2022/07/04 11:19:28;;;;;;;5.03;4.53;;;;;;;;;;4276902;33;20190;-70
2022/07/04 11:21:55;;;;;;;11.12;4.68;;;;;;;;;;4290260;33;20173;-69
2022/07/04 11:24:22;;;;;;;5.95;4.28;;;;;;;;;;4290372;33;20158;-69
2022/07/04 11:26:48;;;;;;;4.35;3.95;;;;;;;;;;4277272;33;20119;-68
2022/07/04 11:29:15;;;;;;;5.37;4.00;;;;;;;;;;4290304;33;20092;-69
2022/07/04 11:31:42;;;;;;;5.37;4.35;;;;;;;;;;4277191;33;20099;-69
2022/07/04 11:34:09;;;;;;;4.32;3.87;;;;;;;;;;4276764;33;20517;-69
2022/07/04 11:36:35;;;;;;;4.53;4.05;;;;;;;;;;4290445;33;20431;-68
2022/07/04 11:39:04;;;;;;;4.72;4.15;;;;;;;;;;4290005;33;20207;-69
2022/07/04 11:47:22;;;;;;;6.05;3.80;;;;;;;;;;4279049;33;20497;-69
2022/07/04 11:49:51;;;;;;;3.50;3.20;;;;;;;;;;4290133;33;20539;-69
2022/07/04 11:52:25;;;;;;;7.07;4.45;;;;;;;;;;4276822;33;20111;-69
2022/07/04 11:54:51;;;;;;;3.97;3.58;;;;;;;;;;4289995;33;20112;-69
2022/07/04 11:57:27;;;;;;;5.25;3.53;;;;;;;;;;4289904;33;20092;-69
2022/07/04 11:59:54;;;;;;;6.22;3.17;;;;;;;;;;4290121;33;20108;-70
2022/07/04 12:02:21;;;;;;;4.62;3.42;;;;;;;;;;4289939;33;20123;-70
2022/07/04 12:04:47;;;;;;;5.93;3.70;;;;;;;;;;4289991;33;20100;-70
2022/07/04 12:07:18;;;;;;;6.25;3.60;;;;;;;;;;4289669;33;20123;-68
2022/07/04 12:09:45;;;;;;;3.78;3.08;;;;;;;;;;4276551;33;20205;-68
2022/07/04 12:12:12;;;;;;;4.55;3.75;;;;;;;;;;4289691;33;20108;-67
2022/07/04 12:14:38;;;;;;;7.22;3.53;;;;;;;;;;4289898;33;20114;-72
2022/07/04 12:17:15;;;;;;;3.97;3.20;;;;;;;;;;4300657;33;20112;-73
2022/07/04 12:19:55;;;;;;;4.93;3.50;;;;;;;;;;4290090;33;20096;-73
2022/07/04 12:22:26;;;;;;;4.37;3.47;;;;;;;;;;4276534;33;20644;-72
2022/07/04 12:24:52;;;;;;;5.28;3.90;;;;;;;;;;4289385;33;20425;-70
2022/07/04 12:27:19;;;;;;;3.80;3.15;;;;;;;;;;4296208;33;20111;-71
2022/07/04 12:29:49;;;;;;;5.72;4.05;;;;;;;;;;4275044;33;20195;-71
2022/07/04 12:32:16;;;;;;;4.35;3.95;;;;;;;;;;4274918;33;20131;-73
2022/07/04 12:34:42;;;;;;;5.40;4.05;;;;;;;;;;4274865;33;20143;-73
2022/07/04 12:37:10;;;;;;;4.30;3.28;;;;;;;;;;4274674;33;20112;-73
2022/07/04 12:39:37;;;;;;;4.30;3.90;;;;;;;;;;4261984;33;20104;-73
2022/07/04 12:42:15;;;;;;;7.70;4.07;;;;;;;;;;4274938;33;20104;-73
2022/07/04 12:44:43;;;;;;;6.65;3.53;;;;;;;;;;4261950;33;20089;-73
2022/07/04 12:47:10;;;;;;;4.25;3.42;;;;;;;;;;4274546;33;20443;-74
2022/07/04 12:49:36;;;;;;;5.25;3.15;;;;;;;;;;4275236;33;20540;-71
2022/07/04 12:52:08;;;;;;;6.35;3.47;;;;;;;;;;4274848;33;20574;-73
2022/07/04 12:54:35;;;;;;;5.22;4.25;;;;;;;;;;4275060;33;20476;-74
2022/07/04 12:57:09;;;;;;;10.02;3.90;;;;;;;;;;4261962;33;20120;-72
2022/07/04 12:59:35;;;;;;;8.77;4.10;;;;;;;;;;4262263;33;20222;-73
2022/07/04 13:02:02;;;;;;;5.10;3.72;;;;;;;;;;4274833;33;20127;-71
2022/07/04 13:04:28;;;;;;;5.93;3.62;;;;;;;;;;4275546;33;20524;-73
2022/07/04 13:06:54;;;;;;;7.03;3.85;;;;;;;;;;4261851;33;20159;-73
2022/07/04 13:09:20;;;;;;;6.03;3.67;;;;;;;;;;4274747;33;20108;-71
2022/07/04 13:14:31;;;;;;;6.07;3.87;;;;;;;;;;4274910;33;20492;-73
2022/07/04 13:16:57;;;;;;;5.93;3.80;;;;;;;;;;4275227;33;20516;-75
2022/07/04 13:19:23;;;;;;;5.25;3.90;;;;;;;;;;4275069;33;20128;-73
2022/07/04 13:21:49;;;;;;;5.37;2.87;;;;;;;;;;4274943;33;20218;-74
2022/07/04 13:24:15;;;;;;;4.28;3.30;;;;;;;;;;4275298;33;20107;-72
2022/07/04 13:26:42;;;;;;;4.70;3.45;;;;;;;;;;4275108;33;20119;-73
2022/07/04 13:29:08;;;;;;;4.75;3.55;;;;;;;;;;4275073;33;20111;-76
2022/07/04 13:31:34;;;;;;;11.50;3.60;;;;;;;;;;4274931;33;20115;-75
2022/07/04 13:34:01;;;;;;;5.20;3.30;;;;;;;;;;4274783;33;20516;-72
2022/07/04 13:36:27;;;;;;;6.57;3.22;;;;;;;;;;4262279;33;20471;-73
2022/07/04 13:38:53;;;;;;;7.53;3.60;;;;;;;;;;4277071;33;20100;-74
2022/07/04 13:41:19;;;;;;;4.20;3.75;;;;;;;;;;4263662;33;20142;-76
2022/07/04 13:43:45;;;;;;;5.50;3.30;;;;;;;;;;4263922;33;20489;-75
2022/07/04 13:46:11;;;;;;;5.03;3.30;;;;;;;;;;4277128;33;20441;-75
2022/07/04 13:48:37;;;;;;;4.47;3.28;;;;;;;;;;4276682;33;20105;-77
2022/07/04 13:51:03;;;;;;;4.07;3.62;;;;;;;;;;4277056;33;20138;-74
2022/07/04 13:53:31;;;;;;;3.30;2.92;;;;;;;;;;4277803;33;20093;-78
2022/07/04 13:55:57;;;;;;;5.03;3.03;;;;;;;;;;4277301;33;20463;-74
2022/07/04 13:58:23;;;;;;;11.85;4.72;;;;;;;;;;4276823;33;20512;-75
2022/07/04 14:00:49;;;;;;;4.70;3.60;;;;;;;;;;4263750;33;20652;-78
2022/07/04 14:03:16;;;;;;;5.65;3.45;;;;;;;;;;4277098;33;20124;-77
2022/07/04 14:05:42;;;;;;;6.22;3.75;;;;;;;;;;4279790;33;20547;-77
2022/07/04 14:08:08;;;;;;;5.18;3.55;;;;;;;;;;4277036;33;20096;-76
2022/07/04 14:10:34;;;;;;;12.00;4.57;;;;;;;;;;4276935;33;20225;-75
2022/07/04 14:13:01;;;;;;;11.52;4.28;;;;;;;;;;4276695;33;20647;-77
2022/07/04 14:15:27;;;;;;;5.90;4.03;;;;;;;;;;4277113;33;20192;-75
2022/07/04 14:17:53;;;;;;;11.32;4.35;;;;;;;;;;4263605;33;20107;-75
2022/07/04 14:20:19;;;;;;;7.20;3.85;;;;;;;;;;4276917;33;20123;-74
2022/07/04 14:22:46;;;;;;;10.93;5.18;;;;;;;;;;4263616;33;20495;-78
2022/07/04 14:25:12;;;;;;;7.30;4.60;;;;;;;;;;4276944;33;20118;-77
2022/07/04 14:27:38;;;;;;;6.50;3.47;;;;;;;;;;4276814;33;20107;-81
2022/07/04 14:30:06;;;;;;;6.65;3.90;;;;;;;;;;4276739;33;20121;-79
2022/07/04 14:32:32;;;;;;;4.97;3.70;;;;;;;;;;4276659;33;20106;-81
2022/07/04 14:34:58;;;;;;;4.93;3.70;;;;;;;;;;4276887;33;20104;-79
2022/07/04 14:37:24;;;;;;;4.85;3.87;;;;;;;;;;4276898;33;20115;-77
2022/07/04 14:39:50;;;;;;;9.73;4.00;;;;;;;;;;4276721;33;20479;-82
2022/07/04 14:42:17;;;;;;;7.15;3.80;;;;;;;;;;4277897;33;20561;-83
2022/07/04 14:44:43;;;;;;;8.63;4.30;;;;;;;;;;4276858;33;20519;-71
2022/07/04 14:47:09;;;;;;;5.93;4.10;;;;;;;;;;4276209;33;20234;-74
2022/07/04 14:49:35;;;;;;;4.20;3.80;;;;;;;;;;4276273;33;20479;-74
2022/07/04 14:52:01;;;;;;;6.93;4.18;;;;;;;;;;4276214;33;20536;-76
2022/07/04 14:54:27;;;;;;;4.00;3.37;;;;;;;;;;4276480;33;20127;-74
2022/07/04 14:56:53;;;;;;;5.40;4.30;;;;;;;;;;4276659;33;20111;-76
2022/07/04 14:59:20;;;;;;;8.13;4.00;;;;;;;;;;4276375;33;20119;-77
2022/07/04 15:01:46;;;;;;;4.85;3.33;;;;;;;;;;4263395;33;20120;-76
2022/07/04 15:04:12;;;;;;;5.53;4.25;;;;;;;;;;4264698;33;20531;-73
2022/07/04 15:06:38;;;;;;;5.57;4.00;;;;;;;;;;4290661;33;20218;-72
2022/07/04 15:09:08;;;;;;;5.78;3.65;;;;;;;;;;4290398;33;20103;-74
2022/07/04 15:11:34;;;;;;;8.13;4.45;;;;;;;;;;4290649;33;20119;-73
2022/07/04 15:14:00;;;;;;;6.35;4.15;;;;;;;;;;4290631;33;20126;-71
2022/07/04 15:16:26;;;;;;;11.35;4.70;;;;;;;;;;4289636;33;20633;-70
2022/07/04 15:18:53;;;;;;;6.10;4.20;;;;;;;;;;4287154;33;20513;-72
2022/07/04 15:24:15;;;;;;;5.95;4.43;;;;;;;;;;4287857;33;20100;-72
2022/07/04 15:26:50;;;;;;;8.55;4.85;;;;;;;;;;4282682;33;20183;-71
2022/07/04 15:29:17;;;;;;;7.45;4.50;;;;;;;;;;4282698;33;20108;-70
2022/07/04 15:31:44;;;;;;;8.90;5.15;;;;;;;;;;4281943;33;20085;-73
2022/07/04 15:34:11;;;;;;;7.93;4.70;;;;;;;;;;4265098;33;20568;-73
2022/07/04 15:36:37;;;;;;;5.57;4.18;;;;;;;;;;4275179;33;20116;-73
2022/07/04 15:39:11;;;;;;;6.28;3.35;;;;;;;;;;4273486;33;20601;-73
2022/07/04 15:41:38;;;;;;;8.07;4.27;;;;;;;;;;4275278;33;20123;-73